sensor_id;sensor_type;location;lat;lon;timestamp;pressure;altitude;pressure_sealevel;temperature;humidity
62524;BME280;53689;56.878;60.672;2023-03-04T00:00:54;96882.78;;;20.57;19.14
62524;BME280;53689;56.878;60.672;2023-03-04T00:03:22;96881.22;;;20.49;16.97
62524;BME280;53689;56.878;60.672;2023-03-04T00:05:49;96879.66;;;20.60;17.92
62524;BME280;53689;56.878;60.672;2023-03-04T00:08:17;96879.19;;;20.63;18.30
62524;BME280;53689;56.878;60.672;2023-03-04T00:10:45;96878.81;;;20.60;18.28
62524;BME280;53689;56.878;60.672;2023-03-04T00:13:12;96887.88;;;20.47;16.22
62524;BME280;53689;56.878;60.672;2023-03-04T00:15:41;96885.69;;;20.74;18.18
62524;BME280;53689;56.878;60.672;2023-03-04T00:18:09;96882.78;;;20.57;18.25
62524;BME280;53689;56.878;60.672;2023-03-04T00:20:37;96876.59;;;20.57;17.71
62524;BME280;53689;56.878;60.672;2023-03-04T00:23:04;96876.97;;;20.60;18.05
62524;BME280;53689;56.878;60.672;2023-03-04T00:25:32;96881.97;;;20.57;17.54
62524;BME280;53689;56.878;60.672;2023-03-04T00:27:59;96886.09;;;20.59;17.44
62524;BME280;53689;56.878;60.672;2023-03-04T00:30:27;96875.00;;;20.68;17.91
62524;BME280;53689;56.878;60.672;2023-03-04T00:32:56;96882.09;;;20.62;16.61
62524;BME280;53689;56.878;60.672;2023-03-04T00:35:24;96876.97;;;20.60;18.87
62524;BME280;53689;56.878;60.672;2023-03-04T00:37:53;96875.75;;;20.56;17.74
62524;BME280;53689;56.878;60.672;2023-03-04T00:40:21;96876.81;;;20.55;17.18
62524;BME280;53689;56.878;60.672;2023-03-04T00:42:58;96880.47;;;20.61;18.76
62524;BME280;53689;56.878;60.672;2023-03-04T00:45:26;96885.75;;;20.68;19.79
62524;BME280;53689;56.878;60.672;2023-03-04T00:47:53;96879.97;;;20.52;20.68
62524;BME280;53689;56.878;60.672;2023-03-04T00:50:23;96891.97;;;20.49;18.70
62524;BME280;53689;56.878;60.672;2023-03-04T00:52:50;96877.56;;;20.62;19.92
62524;BME280;53689;56.878;60.672;2023-03-04T00:55:18;96873.53;;;20.72;19.47
62524;BME280;53689;56.878;60.672;2023-03-04T00:57:45;96877.38;;;20.76;18.59
62524;BME280;53689;56.878;60.672;2023-03-04T01:02:42;96877.63;;;20.74;19.24
62524;BME280;53689;56.878;60.672;2023-03-04T01:05:10;96878.31;;;20.70;18.88
62524;BME280;53689;56.878;60.672;2023-03-04T01:07:39;96875.63;;;20.70;17.15
62524;BME280;53689;56.878;60.672;2023-03-04T01:10:09;96876.06;;;20.66;19.26
62524;BME280;53689;56.878;60.672;2023-03-04T01:12:37;96876.88;;;20.67;19.33
62524;BME280;53689;56.878;60.672;2023-03-04T01:15:05;96875.56;;;20.58;17.49
62524;BME280;53689;56.878;60.672;2023-03-04T01:17:34;96874.19;;;20.67;18.14
62524;BME280;53689;56.878;60.672;2023-03-04T01:20:02;96882.19;;;20.55;17.35
62524;BME280;53689;56.878;60.672;2023-03-04T01:22:30;96874.88;;;20.62;17.83
62524;BME280;53689;56.878;60.672;2023-03-04T01:24:59;96884.06;;;20.55;18.42
62524;BME280;53689;56.878;60.672;2023-03-04T01:27:27;96872.94;;;20.51;17.62
62524;BME280;53689;56.878;60.672;2023-03-04T01:29:54;96877.69;;;20.68;17.19
62524;BME280;53689;56.878;60.672;2023-03-04T01:32:22;96884.75;;;20.69;19.65
62524;BME280;53689;56.878;60.672;2023-03-04T01:34:49;96881.91;;;20.63;17.18
62524;BME280;53689;56.878;60.672;2023-03-04T01:37:17;96885.53;;;20.69;18.07
62524;BME280;53689;56.878;60.672;2023-03-04T01:39:45;96889.06;;;20.70;19.65
62524;BME280;53689;56.878;60.672;2023-03-04T01:42:17;96886.38;;;20.70;19.72
62524;BME280;53689;56.878;60.672;2023-03-04T01:44:46;96893.16;;;20.72;19.26
62524;BME280;53689;56.878;60.672;2023-03-04T01:47:15;96886.22;;;20.64;18.23
62524;BME280;53689;56.878;60.672;2023-03-04T01:49:44;96880.53;;;20.73;20.15
62524;BME280;53689;56.878;60.672;2023-03-04T01:52:13;96874.88;;;20.62;19.51
62524;BME280;53689;56.878;60.672;2023-03-04T01:54:41;96885.91;;;20.73;17.62
62524;BME280;53689;56.878;60.672;2023-03-04T01:57:15;96892.19;;;20.66;18.11
62524;BME280;53689;56.878;60.672;2023-03-04T01:59:44;96885.75;;;20.68;20.37
62524;BME280;53689;56.878;60.672;2023-03-04T02:02:12;96892.81;;;20.50;18.52
62524;BME280;53689;56.878;60.672;2023-03-04T02:04:41;96894.44;;;20.51;17.61
62524;BME280;53689;56.878;60.672;2023-03-04T02:07:09;96887.84;;;20.65;19.39
62524;BME280;53689;56.878;60.672;2023-03-04T02:09:36;96883.41;;;20.59;18.37
62524;BME280;53689;56.878;60.672;2023-03-04T02:12:04;96883.84;;;20.56;18.88
62524;BME280;53689;56.878;60.672;2023-03-04T02:14:33;96892.53;;;20.58;17.98
62524;BME280;53689;56.878;60.672;2023-03-04T02:17:02;96881.59;;;20.53;17.24
62524;BME280;53689;56.878;60.672;2023-03-04T02:19:39;96877.72;;;20.49;18.32
62524;BME280;53689;56.878;60.672;2023-03-04T02:22:09;96875.47;;;20.46;17.82
62524;BME280;53689;56.878;60.672;2023-03-04T02:24:40;96876.31;;;20.46;17.49
62524;BME280;53689;56.878;60.672;2023-03-04T02:27:11;96881.44;;;20.48;18.27
62524;BME280;53689;56.878;60.672;2023-03-04T02:29:39;96867.31;;;20.52;18.01
62524;BME280;53689;56.878;60.672;2023-03-04T02:32:09;96875.19;;;20.54;18.14
62524;BME280;53689;56.878;60.672;2023-03-04T02:34:43;96871.31;;;20.50;18.20
62524;BME280;53689;56.878;60.672;2023-03-04T02:37:12;96877.13;;;20.47;17.58
62524;BME280;53689;56.878;60.672;2023-03-04T02:39:43;96876.44;;;20.51;19.95
62524;BME280;53689;56.878;60.672;2023-03-04T02:42:13;96880.47;;;20.42;16.71
62524;BME280;53689;56.878;60.672;2023-03-04T02:44:43;96881.69;;;20.46;18.11
62524;BME280;53689;56.878;60.672;2023-03-04T02:47:12;96882.94;;;20.44;17.14
62524;BME280;53689;56.878;60.672;2023-03-04T02:49:41;96875.72;;;20.44;16.74
62524;BME280;53689;56.878;60.672;2023-03-04T02:52:11;96875.47;;;20.46;17.30
62524;BME280;53689;56.878;60.672;2023-03-04T02:54:40;96883.09;;;20.49;20.27
62524;BME280;53689;56.878;60.672;2023-03-04T02:57:09;96876.22;;;20.34;18.44
62524;BME280;53689;56.878;60.672;2023-03-04T02:59:41;96871.59;;;20.42;19.19
62524;BME280;53689;56.878;60.672;2023-03-04T03:02:14;96874.78;;;20.32;17.01
62524;BME280;53689;56.878;60.672;2023-03-04T03:04:42;96871.06;;;20.33;17.64
62524;BME280;53689;56.878;60.672;2023-03-04T03:07:13;96867.69;;;20.37;18.60
62524;BME280;53689;56.878;60.672;2023-03-04T03:09:41;96874.66;;;20.27;17.86
62524;BME280;53689;56.878;60.672;2023-03-04T03:12:08;96873.53;;;20.34;18.63
62524;BME280;53689;56.878;60.672;2023-03-04T03:14:37;96873.16;;;20.31;17.26
62524;BME280;53689;56.878;60.672;2023-03-04T03:17:07;96877.34;;;20.27;17.40
62524;BME280;53689;56.878;60.672;2023-03-04T03:19:35;96862.03;;;20.27;17.18
62524;BME280;53689;56.878;60.672;2023-03-04T03:22:05;96873.53;;;20.34;16.87
62524;BME280;53689;56.878;60.672;2023-03-04T03:24:33;96869.22;;;20.33;16.79
62524;BME280;53689;56.878;60.672;2023-03-04T03:27:01;96866.22;;;20.42;18.09
62524;BME280;53689;56.878;60.672;2023-03-04T03:29:30;96869.72;;;20.42;17.64
62524;BME280;53689;56.878;60.672;2023-03-04T03:31:58;96877.72;;;20.30;19.50
62524;BME280;53689;56.878;60.672;2023-03-04T03:34:27;96868.44;;;20.26;18.16
62524;BME280;53689;56.878;60.672;2023-03-04T03:36:55;96877.56;;;20.25;17.00
62524;BME280;53689;56.878;60.672;2023-03-04T03:39:22;96870.09;;;20.27;17.53
62524;BME280;53689;56.878;60.672;2023-03-04T03:41:50;96875.03;;;20.30;17.07
62524;BME280;53689;56.878;60.672;2023-03-04T03:44:17;96865.97;;;20.43;17.86
62524;BME280;53689;56.878;60.672;2023-03-04T03:46:45;96871.13;;;20.26;17.89
62524;BME280;53689;56.878;60.672;2023-03-04T03:49:12;96876.22;;;20.34;18.34
62524;BME280;53689;56.878;60.672;2023-03-04T03:51:42;96871.91;;;20.33;17.65
62524;BME280;53689;56.878;60.672;2023-03-04T03:54:09;96876.44;;;20.33;17.18
62524;BME280;53689;56.878;60.672;2023-03-04T03:56:37;96870.25;;;20.32;17.29
62524;BME280;53689;56.878;60.672;2023-03-04T03:59:04;96875.47;;;20.27;17.30
62524;BME280;53689;56.878;60.672;2023-03-04T04:01:32;96868.31;;;20.40;17.17
62524;BME280;53689;56.878;60.672;2023-03-04T04:03:59;96879.06;;;20.40;18.20
62524;BME280;53689;56.878;60.672;2023-03-04T04:06:27;96881.81;;;20.51;18.08
62524;BME280;53689;56.878;60.672;2023-03-04T04:08:56;96879.81;;;20.47;17.45
62524;BME280;53689;56.878;60.672;2023-03-04T04:11:25;96875.72;;;20.44;17.21
62524;BME280;53689;56.878;60.672;2023-03-04T04:13:53;96870.56;;;20.43;18.38
62524;BME280;53689;56.878;60.672;2023-03-04T04:16:20;96886.69;;;20.43;17.02
62524;BME280;53689;56.878;60.672;2023-03-04T04:18:48;96896.59;;;20.42;17.75
62524;BME280;53689;56.878;60.672;2023-03-04T04:21:15;96880.94;;;20.39;17.99
62524;BME280;53689;56.878;60.672;2023-03-04T04:23:43;96888.44;;;20.68;16.73
62524;BME280;53689;56.878;60.672;2023-03-04T04:26:12;96889.50;;;20.48;16.64
62524;BME280;53689;56.878;60.672;2023-03-04T04:28:40;96881.00;;;20.51;18.38
62524;BME280;53689;56.878;60.672;2023-03-04T04:31:07;96889.22;;;20.56;18.25
62524;BME280;53689;56.878;60.672;2023-03-04T04:33:35;96881.97;;;20.57;17.27
62524;BME280;53689;56.878;60.672;2023-03-04T04:36:04;96882.44;;;20.54;18.79
62524;BME280;53689;56.878;60.672;2023-03-04T04:38:32;96874.03;;;20.62;17.96
62524;BME280;53689;56.878;60.672;2023-03-04T04:40:59;96875.91;;;20.80;20.20
62524;BME280;53689;56.878;60.672;2023-03-04T04:43:28;96878.22;;;20.76;19.13
62524;BME280;53689;56.878;60.672;2023-03-04T04:45:58;96876.81;;;20.74;19.64
62524;BME280;53689;56.878;60.672;2023-03-04T04:48:26;96881.69;;;20.84;19.80
62524;BME280;53689;56.878;60.672;2023-03-04T04:50:54;96883.31;;;20.85;19.56
62524;BME280;53689;56.878;60.672;2023-03-04T04:53:22;96879.88;;;20.96;19.27
62524;BME280;53689;56.878;60.672;2023-03-04T04:55:50;96875.91;;;20.80;19.28
62524;BME280;53689;56.878;60.672;2023-03-04T04:58:17;96871.72;;;20.84;19.50
62524;BME280;53689;56.878;60.672;2023-03-04T05:00:47;96882.78;;;20.95;20.25
62524;BME280;53689;56.878;60.672;2023-03-04T05:03:14;96882.50;;;20.84;19.94
62524;BME280;53689;56.878;60.672;2023-03-04T05:05:44;96889.50;;;20.66;17.37
62524;BME280;53689;56.878;60.672;2023-03-04T05:08:12;96882.56;;;20.59;16.92
62524;BME280;53689;56.878;60.672;2023-03-04T05:10:39;96888.63;;;20.54;17.41
62524;BME280;53689;56.878;60.672;2023-03-04T05:13:07;96884.06;;;20.55;17.46
62524;BME280;53689;56.878;60.672;2023-03-04T05:15:36;96885.72;;;20.56;16.54
62524;BME280;53689;56.878;60.672;2023-03-04T05:18:05;96884.28;;;20.53;17.60
62524;BME280;53689;56.878;60.672;2023-03-04T05:20:33;96888.25;;;20.50;17.28
62524;BME280;53689;56.878;60.672;2023-03-04T05:23:01;96893.69;;;20.62;18.35
62524;BME280;53689;56.878;60.672;2023-03-04T05:25:29;96889.81;;;20.58;17.41
62524;BME280;53689;56.878;60.672;2023-03-04T05:27:57;96888.44;;;20.68;17.46
62524;BME280;53689;56.878;60.672;2023-03-04T05:30:24;96890.81;;;20.83;18.29
62524;BME280;53689;56.878;60.672;2023-03-04T05:32:52;96886.53;;;20.56;16.69
62524;BME280;53689;56.878;60.672;2023-03-04T05:35:21;96890.41;;;20.60;17.30
62524;BME280;53689;56.878;60.672;2023-03-04T05:37:49;96887.72;;;20.60;17.20
62524;BME280;53689;56.878;60.672;2023-03-04T05:40:16;96884.00;;;20.61;18.33
62524;BME280;53689;56.878;60.672;2023-03-04T05:42:44;96883.44;;;20.52;19.12
62524;BME280;53689;56.878;60.672;2023-03-04T05:45:12;96889.66;;;20.72;18.39
62524;BME280;53689;56.878;60.672;2023-03-04T05:47:39;96886.91;;;20.60;17.57
62524;BME280;53689;56.878;60.672;2023-03-04T05:50:08;96888.41;;;20.56;17.41
62524;BME280;53689;56.878;60.672;2023-03-04T05:52:38;96893.31;;;20.59;17.18
62524;BME280;53689;56.878;60.672;2023-03-04T05:55:06;96894.00;;;20.54;16.87
62524;BME280;53689;56.878;60.672;2023-03-04T05:57:34;96884.59;;;20.63;16.72
62524;BME280;53689;56.878;60.672;2023-03-04T06:00:03;96890.19;;;20.62;18.11
62524;BME280;53689;56.878;60.672;2023-03-04T06:02:38;96891.47;;;20.59;16.49
62524;BME280;53689;56.878;60.672;2023-03-04T06:05:08;96894.75;;;20.61;17.07
62524;BME280;53689;56.878;60.672;2023-03-04T06:07:37;96900.88;;;20.69;17.32
62524;BME280;53689;56.878;60.672;2023-03-04T06:10:06;96889.97;;;20.63;16.75
62524;BME280;53689;56.878;60.672;2023-03-04T06:12:34;96895.34;;;20.63;16.73
62524;BME280;53689;56.878;60.672;2023-03-04T06:15:01;96893.91;;;20.61;16.54
62524;BME280;53689;56.878;60.672;2023-03-04T06:17:29;96894.50;;;20.63;16.26
62524;BME280;53689;56.878;60.672;2023-03-04T06:19:57;96900.13;;;20.61;17.34
62524;BME280;53689;56.878;60.672;2023-03-04T06:22:24;96891.31;;;20.73;17.18
62524;BME280;53689;56.878;60.672;2023-03-04T06:24:53;96895.63;;;20.74;17.24
62524;BME280;53689;56.878;60.672;2023-03-04T06:27:21;96897.34;;;20.68;17.86
62524;BME280;53689;56.878;60.672;2023-03-04T06:29:49;96892.34;;;20.72;17.97
62524;BME280;53689;56.878;60.672;2023-03-04T06:32:16;96891.13;;;20.68;16.71
62524;BME280;53689;56.878;60.672;2023-03-04T06:34:44;96887.84;;;20.65;16.93
62524;BME280;53689;56.878;60.672;2023-03-04T06:37:12;96888.41;;;20.74;17.39
62524;BME280;53689;56.878;60.672;2023-03-04T06:39:40;96888.03;;;20.71;18.75
62524;BME280;53689;56.878;60.672;2023-03-04T06:42:09;96887.94;;;20.77;17.52
62524;BME280;53689;56.878;60.672;2023-03-04T06:44:36;96889.88;;;20.89;16.86
62524;BME280;53689;56.878;60.672;2023-03-04T06:47:05;96888.75;;;20.78;17.16
62524;BME280;53689;56.878;60.672;2023-03-04T06:49:32;96884.06;;;20.92;18.75
62524;BME280;53689;56.878;60.672;2023-03-04T06:52:00;96881.13;;;20.75;16.68
62524;BME280;53689;56.878;60.672;2023-03-04T06:54:28;96892.47;;;20.77;16.94
62524;BME280;53689;56.878;60.672;2023-03-04T06:56:55;96890.03;;;20.75;16.65
62524;BME280;53689;56.878;60.672;2023-03-04T06:59:25;96886.97;;;20.90;18.02
62524;BME280;53689;56.878;60.672;2023-03-04T07:01:53;96895.34;;;20.82;17.35
62524;BME280;53689;56.878;60.672;2023-03-04T07:04:20;96889.97;;;20.82;17.85
62524;BME280;53689;56.878;60.672;2023-03-04T07:06:48;96893.31;;;20.96;18.35
62524;BME280;53689;56.878;60.672;2023-03-04T07:09:16;96890.13;;;20.87;19.27
62524;BME280;53689;56.878;60.672;2023-03-04T07:11:44;96893.78;;;20.93;18.87
62524;BME280;53689;56.878;60.672;2023-03-04T07:14:12;96890.81;;;20.83;17.37
62524;BME280;53689;56.878;60.672;2023-03-04T07:16:41;96889.97;;;20.82;17.31
62524;BME280;53689;56.878;60.672;2023-03-04T07:19:09;96889.91;;;20.07;19.67
62524;BME280;53689;56.878;60.672;2023-03-04T07:21:37;96894.75;;;20.61;18.21
62524;BME280;53689;56.878;60.672;2023-03-04T07:24:05;96891.69;;;20.76;18.53
62524;BME280;53689;56.878;60.672;2023-03-04T07:26:33;96888.72;;;20.85;18.61
62524;BME280;53689;56.878;60.672;2023-03-04T07:29:00;96891.41;;;20.85;19.22
62524;BME280;53689;56.878;60.672;2023-03-04T07:31:29;96892.25;;;20.78;17.30
62524;BME280;53689;56.878;60.672;2023-03-04T07:34:00;96887.88;;;20.84;17.60
62524;BME280;53689;56.878;60.672;2023-03-04T07:36:28;96891.31;;;20.73;16.81
62524;BME280;53689;56.878;60.672;2023-03-04T07:38:56;96897.75;;;20.90;18.50
62524;BME280;53689;56.878;60.672;2023-03-04T07:41:25;96889.09;;;20.88;18.36
62524;BME280;53689;56.878;60.672;2023-03-04T07:43:55;96896.69;;;20.91;18.29
62524;BME280;53689;56.878;60.672;2023-03-04T07:46:23;96893.16;;;20.91;18.13
62524;BME280;53689;56.878;60.672;2023-03-04T07:48:50;96884.50;;;20.89;17.26
62524;BME280;53689;56.878;60.672;2023-03-04T07:51:21;96890.34;;;20.86;18.30
62524;BME280;53689;56.878;60.672;2023-03-04T07:53:50;96895.50;;;20.87;17.58
62524;BME280;53689;56.878;60.672;2023-03-04T07:56:21;96888.31;;;21.00;19.04
62524;BME280;53689;56.878;60.672;2023-03-04T07:58:50;96894.59;;;20.93;17.48
62524;BME280;53689;56.878;60.672;2023-03-04T08:01:19;96897.53;;;20.92;18.30
62524;BME280;53689;56.878;60.672;2023-03-04T08:03:47;96890.72;;;20.89;17.83
62524;BME280;53689;56.878;60.672;2023-03-04T08:06:16;96897.91;;;21.07;18.44
62524;BME280;53689;56.878;60.672;2023-03-04T08:08:46;96894.31;;;20.83;18.39
62524;BME280;53689;56.878;60.672;2023-03-04T08:11:16;96883.38;;;20.78;17.52
62524;BME280;53689;56.878;60.672;2023-03-04T08:13:44;96898.19;;;21.18;19.92
62524;BME280;53689;56.878;60.672;2023-03-04T08:16:12;96889.16;;;21.43;19.84
62524;BME280;53689;56.878;60.672;2023-03-04T08:18:40;96888.00;;;21.51;19.57
62524;BME280;53689;56.878;60.672;2023-03-04T08:21:09;96884.94;;;21.47;19.95
62524;BME280;53689;56.878;60.672;2023-03-04T08:23:37;96889.97;;;21.43;19.48
62524;BME280;53689;56.878;60.672;2023-03-04T08:26:07;96888.59;;;21.53;20.21
62524;BME280;53689;56.878;60.672;2023-03-04T08:28:36;96887.28;;;21.43;20.16
62524;BME280;53689;56.878;60.672;2023-03-04T08:31:04;96885.25;;;21.27;20.03
62524;BME280;53689;56.878;60.672;2023-03-04T08:33:33;96878.09;;;21.20;19.52
62524;BME280;53689;56.878;60.672;2023-03-04T08:36:00;96874.59;;;21.20;18.75
62524;BME280;53689;56.878;60.672;2023-03-04T08:38:28;96874.66;;;21.13;18.72
62524;BME280;53689;56.878;60.672;2023-03-04T08:40:56;96873.19;;;21.29;18.75
62524;BME280;53689;56.878;60.672;2023-03-04T08:43:25;96883.50;;;21.02;18.74
62524;BME280;53689;56.878;60.672;2023-03-04T08:45:53;96879.13;;;21.19;19.47
62524;BME280;53689;56.878;60.672;2023-03-04T08:48:21;96877.41;;;21.25;19.19
62524;BME280;53689;56.878;60.672;2023-03-04T08:50:50;96888.00;;;21.08;18.05
62524;BME280;53689;56.878;60.672;2023-03-04T08:53:19;96883.66;;;21.07;17.27
62524;BME280;53689;56.878;60.672;2023-03-04T08:55:47;96881.41;;;21.04;17.70
62524;BME280;53689;56.878;60.672;2023-03-04T08:58:14;96873.59;;;21.02;18.79
62524;BME280;53689;56.878;60.672;2023-03-04T09:00:45;96886.34;;;21.07;19.42
62524;BME280;53689;56.878;60.672;2023-03-04T09:03:13;96883.78;;;21.12;19.68
62524;BME280;53689;56.878;60.672;2023-03-04T09:05:43;96888.81;;;21.09;17.92
62524;BME280;53689;56.878;60.672;2023-03-04T09:08:11;96885.91;;;21.10;18.21
62524;BME280;53689;56.878;60.672;2023-03-04T09:10:39;96888.00;;;21.08;19.24
62524;BME280;53689;56.878;60.672;2023-03-04T09:13:07;96880.03;;;21.01;18.81
62524;BME280;53689;56.878;60.672;2023-03-04T09:15:34;96882.25;;;21.04;18.26
62524;BME280;53689;56.878;60.672;2023-03-04T09:18:04;96878.88;;;21.09;18.65
62524;BME280;53689;56.878;60.672;2023-03-04T09:20:32;96878.88;;;21.09;18.78
62524;BME280;53689;56.878;60.672;2023-03-04T09:23:00;96866.94;;;21.17;19.25
62524;BME280;53689;56.878;60.672;2023-03-04T09:25:28;96878.56;;;21.17;19.00
62524;BME280;53689;56.878;60.672;2023-03-04T09:27:56;96886.03;;;21.15;18.16
62524;BME280;53689;56.878;60.672;2023-03-04T09:30:23;96886.31;;;21.26;19.17
62524;BME280;53689;56.878;60.672;2023-03-04T09:32:51;96891.00;;;21.30;20.21
62524;BME280;53689;56.878;60.672;2023-03-04T09:35:20;96898.13;;;21.25;19.95
62524;BME280;53689;56.878;60.672;2023-03-04T09:37:48;96894.81;;;21.23;18.56
62524;BME280;53689;56.878;60.672;2023-03-04T09:40:19;96900.81;;;21.25;19.04
62524;BME280;53689;56.878;60.672;2023-03-04T09:42:50;96894.81;;;21.23;18.04
62524;BME280;53689;56.878;60.672;2023-03-04T09:45:20;96883.94;;;21.17;19.28
62524;BME280;53689;56.878;60.672;2023-03-04T09:47:49;96887.44;;;21.18;19.19
62524;BME280;53689;56.878;60.672;2023-03-04T09:50:21;96889.81;;;21.26;19.06
62524;BME280;53689;56.878;60.672;2023-03-04T09:53:01;96891.63;;;21.56;20.02
62524;BME280;53689;56.878;60.672;2023-03-04T09:55:34;96885.31;;;21.51;20.05
62524;BME280;53689;56.878;60.672;2023-03-04T09:58:08;96885.88;;;21.53;20.27
62524;BME280;53689;56.878;60.672;2023-03-04T10:00:42;96884.50;;;21.62;20.27
62524;BME280;53689;56.878;60.672;2023-03-04T10:03:14;96888.56;;;21.41;19.55
62524;BME280;53689;56.878;60.672;2023-03-04T10:05:50;96883.78;;;21.43;20.46
62524;BME280;53689;56.878;60.672;2023-03-04T10:08:30;96883.19;;;21.41;19.86
62524;BME280;53689;56.878;60.672;2023-03-04T10:11:01;96894.53;;;21.43;20.08
62524;BME280;53689;56.878;60.672;2023-03-04T10:13:33;96895.97;;;21.45;19.12
62524;BME280;53689;56.878;60.672;2023-03-04T10:16:04;96893.59;;;21.37;21.84
62524;BME280;53689;56.878;60.672;2023-03-04T10:18:36;96892.91;;;21.42;21.43
62524;BME280;53689;56.878;60.672;2023-03-04T10:21:18;96897.34;;;21.48;20.82
62524;BME280;53689;56.878;60.672;2023-03-04T10:23:48;96898.50;;;21.40;20.99
62524;BME280;53689;56.878;60.672;2023-03-04T10:26:17;96895.97;;;21.57;20.48
62524;BME280;53689;56.878;60.672;2023-03-04T10:28:47;96896.66;;;21.53;20.79
62524;BME280;53689;56.878;60.672;2023-03-04T10:31:19;96893.53;;;21.56;20.66
62524;BME280;53689;56.878;60.672;2023-03-04T10:33:47;96896.31;;;21.49;20.41
62524;BME280;53689;56.878;60.672;2023-03-04T10:39:20;96892.59;;;21.62;20.70
62524;BME280;53689;56.878;60.672;2023-03-04T10:42:00;96893.59;;;21.68;20.56
62524;BME280;53689;56.878;60.672;2023-03-04T10:44:29;96886.19;;;21.75;20.17
62524;BME280;53689;56.878;60.672;2023-03-04T10:46:57;96889.13;;;21.73;20.28
62524;BME280;53689;56.878;60.672;2023-03-04T10:49:27;96887.16;;;21.69;19.60
62524;BME280;53689;56.878;60.672;2023-03-04T10:52:01;96892.06;;;21.72;20.52
62524;BME280;53689;56.878;60.672;2023-03-04T10:54:34;96893.69;;;21.73;21.22
62524;BME280;53689;56.878;60.672;2023-03-04T10:57:04;96900.84;;;21.67;20.42
62524;BME280;53689;56.878;60.672;2023-03-04T10:59:42;96898.13;;;21.67;20.95
62524;BME280;53689;56.878;60.672;2023-03-04T11:02:21;96892.84;;;21.60;20.38
62524;BME280;53689;56.878;60.672;2023-03-04T11:04:56;96891.56;;;21.63;20.41
62524;BME280;53689;56.878;60.672;2023-03-04T11:07:31;96890.63;;;21.69;20.68
62524;BME280;53689;56.878;60.672;2023-03-04T11:10:19;96895.06;;;21.63;20.54
62524;BME280;53689;56.878;60.672;2023-03-04T11:12:49;96899.56;;;21.70;20.72
62524;BME280;53689;56.878;60.672;2023-03-04T11:15:21;96888.88;;;21.63;20.76
62524;BME280;53689;56.878;60.672;2023-03-04T11:17:51;96889.09;;;21.61;20.74
62524;BME280;53689;56.878;60.672;2023-03-04T11:20:28;96887.38;;;21.67;21.11
62524;BME280;53689;56.878;60.672;2023-03-04T11:23:01;96880.91;;;21.68;20.78
62524;BME280;53689;56.878;60.672;2023-03-04T11:25:34;96889.00;;;21.68;21.08
62524;BME280;53689;56.878;60.672;2023-03-04T11:28:04;96894.25;;;21.63;19.96
62524;BME280;53689;56.878;60.672;2023-03-04T11:30:41;96881.34;;;21.53;20.29
62524;BME280;53689;56.878;60.672;2023-03-04T11:33:23;96886.94;;;21.52;21.24
62524;BME280;53689;56.878;60.672;2023-03-04T11:35:58;96890.13;;;21.60;20.81
62524;BME280;53689;56.878;60.672;2023-03-04T11:38:35;96879.47;;;21.54;20.59
62524;BME280;53689;56.878;60.672;2023-03-04T11:41:09;96882.50;;;21.57;20.72
62524;BME280;53689;56.878;60.672;2023-03-04T11:43:41;96877.47;;;21.61;20.15
62524;BME280;53689;56.878;60.672;2023-03-04T11:49:26;96872.41;;;21.53;20.52
62524;BME280;53689;56.878;60.672;2023-03-04T11:52:00;96870.22;;;21.61;20.98
62524;BME280;53689;56.878;60.672;2023-03-04T11:54:34;96866.72;;;21.61;20.14
62524;BME280;53689;56.878;60.672;2023-03-04T11:57:11;96865.66;;;21.62;21.22
62524;BME280;53689;56.878;60.672;2023-03-04T11:59:51;96869.41;;;21.61;21.70
62524;BME280;53689;56.878;60.672;2023-03-04T12:02:26;96865.34;;;21.70;20.83
62524;BME280;53689;56.878;60.672;2023-03-04T12:08:16;96858.75;;;21.66;21.34
62524;BME280;53689;56.878;60.672;2023-03-04T12:10:51;96860.56;;;21.72;21.06
62524;BME280;53689;56.878;60.672;2023-03-04T12:16:42;96843.06;;;21.63;20.65
62524;BME280;53689;56.878;60.672;2023-03-04T12:19:23;96847.50;;;21.57;20.17
62524;BME280;53689;56.878;60.672;2023-03-04T12:22:21;96842.59;;;21.66;21.37
62524;BME280;53689;56.878;60.672;2023-03-04T12:25:09;96844.72;;;21.64;20.75
62524;BME280;53689;56.878;60.672;2023-03-04T12:27:49;96843.41;;;21.67;21.40
62524;BME280;53689;56.878;60.672;2023-03-04T12:30:33;96845.84;;;21.56;21.27
62524;BME280;53689;56.878;60.672;2023-03-04T12:33:11;96848.44;;;21.51;22.36
62524;BME280;53689;56.878;60.672;2023-03-04T12:35:47;96845.75;;;21.51;21.85
62524;BME280;53689;56.878;60.672;2023-03-04T12:38:34;96837.78;;;21.56;21.56
62524;BME280;53689;56.878;60.672;2023-03-04T12:41:20;96846.34;;;21.65;21.34
62524;BME280;53689;56.878;60.672;2023-03-04T12:43:53;96839.19;;;21.59;21.52
62524;BME280;53689;56.878;60.672;2023-03-04T12:46:36;96838.13;;;21.60;20.08
62524;BME280;53689;56.878;60.672;2023-03-04T12:49:42;96838.03;;;21.67;21.07
62524;BME280;53689;56.878;60.672;2023-03-04T12:52:20;96838.88;;;21.67;21.13
62524;BME280;53689;56.878;60.672;2023-03-04T12:54:55;96834.53;;;21.66;21.44
62524;BME280;53689;56.878;60.672;2023-03-04T12:57:26;96837.47;;;21.76;21.08
62524;BME280;53689;56.878;60.672;2023-03-04T12:59:57;96833.38;;;21.74;21.35
62524;BME280;53689;56.878;60.672;2023-03-04T13:02:41;96840.06;;;21.83;21.29
62524;BME280;53689;56.878;60.672;2023-03-04T13:05:32;96834.94;;;21.82;21.74
62524;BME280;53689;56.878;60.672;2023-03-04T13:08:11;96839.25;;;21.83;21.31
62524;BME280;53689;56.878;60.672;2023-03-04T13:10:42;96834.44;;;21.85;21.29
62524;BME280;53689;56.878;60.672;2023-03-04T13:13:35;96838.19;;;21.84;21.45
62524;BME280;53689;56.878;60.672;2023-03-04T13:16:04;96829.53;;;21.82;21.38
62524;BME280;53689;56.878;60.672;2023-03-04T13:18:33;96833.38;;;21.86;21.18
62524;BME280;53689;56.878;60.672;2023-03-04T13:21:17;96831.75;;;21.85;20.80